sensor_id;sensor_type;location;lat;lon;timestamp;P1;durP1;ratioP1;P2;durP2;ratioP2
7377;SDS011;3730;50.856;12.776;2023-03-15T00:01:52;6.40;;;2.57;;
7377;SDS011;3730;50.856;12.776;2023-03-15T00:04:18;9.87;;;2.70;;
7377;SDS011;3730;50.856;12.776;2023-03-15T00:06:45;11.97;;;2.67;;
7377;SDS011;3730;50.856;12.776;2023-03-15T00:09:11;9.10;;;2.40;;
7377;SDS011;3730;50.856;12.776;2023-03-15T00:11:37;9.47;;;2.67;;
7377;SDS011;3730;50.856;12.776;2023-03-15T00:14:03;11.27;;;2.60;;
7377;SDS011;3730;50.856;12.776;2023-03-15T00:16:30;11.13;;;2.70;;
7377;SDS011;3730;50.856;12.776;2023-03-15T00:18:56;12.27;;;2.63;;
7377;SDS011;3730;50.856;12.776;2023-03-15T00:21:23;8.90;;;2.87;;
7377;SDS011;3730;50.856;12.776;2023-03-15T00:23:49;7.47;;;2.43;;
7377;SDS011;3730;50.856;12.776;2023-03-15T00:26:15;9.30;;;2.53;;
7377;SDS011;3730;50.856;12.776;2023-03-15T00:28:41;15.63;;;2.47;;
7377;SDS011;3730;50.856;12.776;2023-03-15T00:31:12;10.70;;;2.03;;
7377;SDS011;3730;50.856;12.776;2023-03-15T00:33:38;8.80;;;2.33;;
7377;SDS011;3730;50.856;12.776;2023-03-15T00:36:05;9.57;;;2.50;;
7377;SDS011;3730;50.856;12.776;2023-03-15T00:38:33;11.53;;;2.80;;
7377;SDS011;3730;50.856;12.776;2023-03-15T00:41:09;13.27;;;2.43;;
7377;SDS011;3730;50.856;12.776;2023-03-15T00:43:35;11.47;;;2.80;;
7377;SDS011;3730;50.856;12.776;2023-03-15T00:46:02;10.90;;;2.53;;
7377;SDS011;3730;50.856;12.776;2023-03-15T00:48:28;12.37;;;3.00;;
7377;SDS011;3730;50.856;12.776;2023-03-15T00:51:04;5.17;;;2.20;;
7377;SDS011;3730;50.856;12.776;2023-03-15T00:53:31;10.07;;;2.30;;
7377;SDS011;3730;50.856;12.776;2023-03-15T00:55:57;6.87;;;2.40;;
7377;SDS011;3730;50.856;12.776;2023-03-15T00:58:24;10.53;;;2.77;;
7377;SDS011;3730;50.856;12.776;2023-03-15T01:00:50;9.53;;;2.37;;
7377;SDS011;3730;50.856;12.776;2023-03-15T01:03:16;9.50;;;2.83;;
7377;SDS011;3730;50.856;12.776;2023-03-15T01:05:42;8.43;;;2.57;;
7377;SDS011;3730;50.856;12.776;2023-03-15T01:08:08;10.53;;;3.07;;
7377;SDS011;3730;50.856;12.776;2023-03-15T01:10:34;7.13;;;2.20;;
7377;SDS011;3730;50.856;12.776;2023-03-15T01:13:00;12.03;;;2.67;;
7377;SDS011;3730;50.856;12.776;2023-03-15T01:15:26;7.60;;;2.60;;
7377;SDS011;3730;50.856;12.776;2023-03-15T01:17:52;11.33;;;2.60;;
7377;SDS011;3730;50.856;12.776;2023-03-15T01:20:18;9.90;;;2.67;;
7377;SDS011;3730;50.856;12.776;2023-03-15T01:22:44;10.00;;;2.13;;
7377;SDS011;3730;50.856;12.776;2023-03-15T01:25:10;7.67;;;2.60;;
7377;SDS011;3730;50.856;12.776;2023-03-15T01:27:36;9.77;;;2.20;;
7377;SDS011;3730;50.856;12.776;2023-03-15T01:30:02;5.37;;;2.10;;
7377;SDS011;3730;50.856;12.776;2023-03-15T01:32:29;9.73;;;2.97;;
7377;SDS011;3730;50.856;12.776;2023-03-15T01:34:55;8.07;;;2.30;;
7377;SDS011;3730;50.856;12.776;2023-03-15T01:37:21;8.17;;;2.13;;
7377;SDS011;3730;50.856;12.776;2023-03-15T01:39:48;6.83;;;2.07;;
7377;SDS011;3730;50.856;12.776;2023-03-15T01:42:14;4.73;;;2.10;;
7377;SDS011;3730;50.856;12.776;2023-03-15T01:44:48;9.27;;;2.40;;
7377;SDS011;3730;50.856;12.776;2023-03-15T01:47:14;10.23;;;2.50;;
7377;SDS011;3730;50.856;12.776;2023-03-15T01:49:40;8.73;;;2.17;;
7377;SDS011;3730;50.856;12.776;2023-03-15T01:52:14;9.43;;;2.47;;
7377;SDS011;3730;50.856;12.776;2023-03-15T01:54:47;10.87;;;2.90;;
7377;SDS011;3730;50.856;12.776;2023-03-15T01:59:44;4.83;;;1.90;;
7377;SDS011;3730;50.856;12.776;2023-03-15T02:02:11;13.77;;;2.70;;
7377;SDS011;3730;50.856;12.776;2023-03-15T02:04:49;11.50;;;2.13;;
7377;SDS011;3730;50.856;12.776;2023-03-15T02:07:17;7.53;;;2.00;;
7377;SDS011;3730;50.856;12.776;2023-03-15T02:12:14;8.47;;;2.77;;
7377;SDS011;3730;50.856;12.776;2023-03-15T02:14:41;9.23;;;2.60;;
7377;SDS011;3730;50.856;12.776;2023-03-15T02:17:08;8.07;;;1.93;;
7377;SDS011;3730;50.856;12.776;2023-03-15T02:19:37;8.47;;;2.20;;
7377;SDS011;3730;50.856;12.776;2023-03-15T02:22:09;7.20;;;2.20;;
7377;SDS011;3730;50.856;12.776;2023-03-15T02:24:42;6.77;;;2.07;;
7377;SDS011;3730;50.856;12.776;2023-03-15T02:27:12;5.57;;;1.87;;
7377;SDS011;3730;50.856;12.776;2023-03-15T02:29:38;6.40;;;2.37;;
7377;SDS011;3730;50.856;12.776;2023-03-15T02:32:06;9.13;;;1.90;;
7377;SDS011;3730;50.856;12.776;2023-03-15T02:34:32;8.47;;;2.20;;
7377;SDS011;3730;50.856;12.776;2023-03-15T02:36:58;8.50;;;2.10;;
7377;SDS011;3730;50.856;12.776;2023-03-15T02:39:24;4.90;;;2.17;;
7377;SDS011;3730;50.856;12.776;2023-03-15T02:41:52;6.70;;;2.10;;
7377;SDS011;3730;50.856;12.776;2023-03-15T02:46:48;7.30;;;2.70;;
7377;SDS011;3730;50.856;12.776;2023-03-15T02:49:16;10.80;;;2.63;;
7377;SDS011;3730;50.856;12.776;2023-03-15T02:51:45;4.53;;;1.90;;
7377;SDS011;3730;50.856;12.776;2023-03-15T02:54:11;7.57;;;2.10;;
7377;SDS011;3730;50.856;12.776;2023-03-15T02:56:37;10.63;;;2.20;;
7377;SDS011;3730;50.856;12.776;2023-03-15T02:59:02;6.67;;;2.03;;
7377;SDS011;3730;50.856;12.776;2023-03-15T03:01:28;7.63;;;1.97;;
7377;SDS011;3730;50.856;12.776;2023-03-15T03:03:53;4.13;;;1.77;;
7377;SDS011;3730;50.856;12.776;2023-03-15T03:06:19;7.33;;;1.97;;
7377;SDS011;3730;50.856;12.776;2023-03-15T03:08:45;5.07;;;1.93;;
7377;SDS011;3730;50.856;12.776;2023-03-15T03:11:15;9.63;;;2.27;;
7377;SDS011;3730;50.856;12.776;2023-03-15T03:13:41;6.53;;;2.10;;
7377;SDS011;3730;50.856;12.776;2023-03-15T03:16:07;7.50;;;2.73;;
7377;SDS011;3730;50.856;12.776;2023-03-15T03:18:34;8.37;;;2.57;;
7377;SDS011;3730;50.856;12.776;2023-03-15T03:21:00;5.90;;;2.20;;
7377;SDS011;3730;50.856;12.776;2023-03-15T03:23:28;11.50;;;2.10;;
7377;SDS011;3730;50.856;12.776;2023-03-15T03:25:54;3.60;;;1.60;;
7377;SDS011;3730;50.856;12.776;2023-03-15T03:28:21;8.13;;;1.70;;
7377;SDS011;3730;50.856;12.776;2023-03-15T03:30:48;8.13;;;1.90;;
7377;SDS011;3730;50.856;12.776;2023-03-15T03:33:15;6.87;;;2.20;;
7377;SDS011;3730;50.856;12.776;2023-03-15T03:35:40;8.73;;;2.40;;
7377;SDS011;3730;50.856;12.776;2023-03-15T03:38:07;8.80;;;2.67;;
7377;SDS011;3730;50.856;12.776;2023-03-15T03:40:33;7.43;;;2.03;;
7377;SDS011;3730;50.856;12.776;2023-03-15T03:42:59;8.83;;;2.20;;
7377;SDS011;3730;50.856;12.776;2023-03-15T03:45:24;8.23;;;2.10;;
7377;SDS011;3730;50.856;12.776;2023-03-15T03:47:50;9.30;;;2.33;;
7377;SDS011;3730;50.856;12.776;2023-03-15T03:50:16;7.13;;;2.10;;
7377;SDS011;3730;50.856;12.776;2023-03-15T03:52:42;7.90;;;2.23;;
7377;SDS011;3730;50.856;12.776;2023-03-15T03:55:09;6.93;;;1.93;;
7377;SDS011;3730;50.856;12.776;2023-03-15T03:57:37;7.20;;;1.77;;
7377;SDS011;3730;50.856;12.776;2023-03-15T04:00:04;8.93;;;2.80;;
7377;SDS011;3730;50.856;12.776;2023-03-15T04:02:30;11.13;;;2.30;;
7377;SDS011;3730;50.856;12.776;2023-03-15T04:04:55;11.83;;;2.33;;
7377;SDS011;3730;50.856;12.776;2023-03-15T04:07:21;8.00;;;2.37;;
7377;SDS011;3730;50.856;12.776;2023-03-15T04:09:47;5.47;;;2.10;;
7377;SDS011;3730;50.856;12.776;2023-03-15T04:12:13;12.10;;;2.40;;
7377;SDS011;3730;50.856;12.776;2023-03-15T04:14:38;7.57;;;2.63;;
7377;SDS011;3730;50.856;12.776;2023-03-15T04:17:04;9.77;;;2.10;;
7377;SDS011;3730;50.856;12.776;2023-03-15T04:19:30;7.67;;;1.90;;
7377;SDS011;3730;50.856;12.776;2023-03-15T04:21:55;7.83;;;2.00;;
7377;SDS011;3730;50.856;12.776;2023-03-15T04:24:21;10.47;;;2.10;;
7377;SDS011;3730;50.856;12.776;2023-03-15T04:26:46;7.47;;;2.10;;
7377;SDS011;3730;50.856;12.776;2023-03-15T04:29:12;5.13;;;2.30;;
7377;SDS011;3730;50.856;12.776;2023-03-15T04:31:39;6.60;;;2.00;;
7377;SDS011;3730;50.856;12.776;2023-03-15T04:34:07;9.13;;;2.47;;
7377;SDS011;3730;50.856;12.776;2023-03-15T04:36:33;7.83;;;2.37;;
7377;SDS011;3730;50.856;12.776;2023-03-15T04:38:59;10.17;;;2.07;;
7377;SDS011;3730;50.856;12.776;2023-03-15T04:41:30;7.83;;;1.77;;
7377;SDS011;3730;50.856;12.776;2023-03-15T04:43:58;12.57;;;2.93;;
7377;SDS011;3730;50.856;12.776;2023-03-15T04:46:24;8.20;;;2.10;;
7377;SDS011;3730;50.856;12.776;2023-03-15T04:48:50;8.03;;;2.40;;
7377;SDS011;3730;50.856;12.776;2023-03-15T04:51:16;13.40;;;2.80;;
7377;SDS011;3730;50.856;12.776;2023-03-15T04:53:42;5.70;;;2.20;;
7377;SDS011;3730;50.856;12.776;2023-03-15T04:56:08;8.53;;;2.10;;
7377;SDS011;3730;50.856;12.776;2023-03-15T04:58:34;8.87;;;2.23;;
7377;SDS011;3730;50.856;12.776;2023-03-15T05:01:00;6.83;;;1.77;;
7377;SDS011;3730;50.856;12.776;2023-03-15T05:03:26;11.40;;;2.30;;
7377;SDS011;3730;50.856;12.776;2023-03-15T05:05:52;8.77;;;2.33;;
7377;SDS011;3730;50.856;12.776;2023-03-15T05:08:18;7.40;;;2.20;;
7377;SDS011;3730;50.856;12.776;2023-03-15T05:10:44;5.67;;;1.90;;
7377;SDS011;3730;50.856;12.776;2023-03-15T05:13:10;12.37;;;3.23;;
7377;SDS011;3730;50.856;12.776;2023-03-15T05:15:36;5.30;;;1.80;;
7377;SDS011;3730;50.856;12.776;2023-03-15T05:18:02;11.43;;;2.43;;
7377;SDS011;3730;50.856;12.776;2023-03-15T05:20:28;8.33;;;2.10;;
7377;SDS011;3730;50.856;12.776;2023-03-15T05:22:54;7.07;;;2.20;;
7377;SDS011;3730;50.856;12.776;2023-03-15T05:25:21;11.30;;;2.57;;
7377;SDS011;3730;50.856;12.776;2023-03-15T05:27:48;5.67;;;1.80;;
7377;SDS011;3730;50.856;12.776;2023-03-15T05:30:14;6.93;;;1.80;;
7377;SDS011;3730;50.856;12.776;2023-03-15T05:32:40;6.63;;;2.40;;
7377;SDS011;3730;50.856;12.776;2023-03-15T05:35:08;7.33;;;2.80;;
7377;SDS011;3730;50.856;12.776;2023-03-15T05:37:35;8.00;;;1.97;;
7377;SDS011;3730;50.856;12.776;2023-03-15T05:40:01;12.80;;;2.63;;
7377;SDS011;3730;50.856;12.776;2023-03-15T05:42:28;10.70;;;2.20;;
7377;SDS011;3730;50.856;12.776;2023-03-15T05:44:55;7.63;;;2.17;;
7377;SDS011;3730;50.856;12.776;2023-03-15T05:47:21;7.33;;;2.13;;
7377;SDS011;3730;50.856;12.776;2023-03-15T05:49:47;17.20;;;2.87;;
7377;SDS011;3730;50.856;12.776;2023-03-15T05:52:14;12.47;;;3.27;;
7377;SDS011;3730;50.856;12.776;2023-03-15T05:54:40;12.87;;;2.57;;
7377;SDS011;3730;50.856;12.776;2023-03-15T05:57:06;9.67;;;2.27;;
7377;SDS011;3730;50.856;12.776;2023-03-15T05:59:32;7.57;;;2.60;;
7377;SDS011;3730;50.856;12.776;2023-03-15T06:01:58;12.37;;;3.33;;
7377;SDS011;3730;50.856;12.776;2023-03-15T06:04:24;9.50;;;2.90;;
7377;SDS011;3730;50.856;12.776;2023-03-15T06:06:51;10.63;;;2.10;;
7377;SDS011;3730;50.856;12.776;2023-03-15T06:09:17;7.67;;;2.47;;
7377;SDS011;3730;50.856;12.776;2023-03-15T06:11:43;8.30;;;1.87;;
7377;SDS011;3730;50.856;12.776;2023-03-15T06:14:09;5.17;;;1.77;;
7377;SDS011;3730;50.856;12.776;2023-03-15T06:16:35;6.83;;;1.90;;
7377;SDS011;3730;50.856;12.776;2023-03-15T06:19:01;10.70;;;2.50;;
7377;SDS011;3730;50.856;12.776;2023-03-15T06:21:27;6.80;;;2.80;;
7377;SDS011;3730;50.856;12.776;2023-03-15T06:23:53;11.70;;;2.00;;
7377;SDS011;3730;50.856;12.776;2023-03-15T06:26:19;7.83;;;1.90;;
7377;SDS011;3730;50.856;12.776;2023-03-15T06:28:46;8.50;;;2.30;;
7377;SDS011;3730;50.856;12.776;2023-03-15T06:31:13;7.43;;;2.30;;
7377;SDS011;3730;50.856;12.776;2023-03-15T06:33:39;9.73;;;2.83;;
7377;SDS011;3730;50.856;12.776;2023-03-15T06:36:05;6.00;;;2.10;;
7377;SDS011;3730;50.856;12.776;2023-03-15T06:38:32;9.20;;;2.27;;
7377;SDS011;3730;50.856;12.776;2023-03-15T06:40:58;5.37;;;2.13;;
7377;SDS011;3730;50.856;12.776;2023-03-15T06:43:29;8.77;;;2.60;;
7377;SDS011;3730;50.856;12.776;2023-03-15T06:45:55;8.60;;;2.43;;
7377;SDS011;3730;50.856;12.776;2023-03-15T06:48:23;6.20;;;1.73;;
7377;SDS011;3730;50.856;12.776;2023-03-15T06:50:49;8.33;;;3.00;;
7377;SDS011;3730;50.856;12.776;2023-03-15T06:53:15;6.63;;;2.30;;
7377;SDS011;3730;50.856;12.776;2023-03-15T06:55:42;13.80;;;2.87;;
7377;SDS011;3730;50.856;12.776;2023-03-15T06:58:08;7.87;;;2.23;;
7377;SDS011;3730;50.856;12.776;2023-03-15T07:00:34;9.70;;;2.40;;
7377;SDS011;3730;50.856;12.776;2023-03-15T07:03:00;9.63;;;2.37;;
7377;SDS011;3730;50.856;12.776;2023-03-15T07:05:26;5.40;;;2.03;;
7377;SDS011;3730;50.856;12.776;2023-03-15T07:07:52;9.00;;;2.40;;
7377;SDS011;3730;50.856;12.776;2023-03-15T07:10:18;9.43;;;2.23;;
7377;SDS011;3730;50.856;12.776;2023-03-15T07:12:45;6.30;;;2.20;;
7377;SDS011;3730;50.856;12.776;2023-03-15T07:15:11;9.40;;;2.30;;
7377;SDS011;3730;50.856;12.776;2023-03-15T07:17:37;9.30;;;2.90;;
7377;SDS011;3730;50.856;12.776;2023-03-15T07:20:03;7.13;;;2.33;;
7377;SDS011;3730;50.856;12.776;2023-03-15T07:22:32;7.80;;;2.30;;
7377;SDS011;3730;50.856;12.776;2023-03-15T07:24:58;5.20;;;2.00;;
7377;SDS011;3730;50.856;12.776;2023-03-15T07:27:25;8.83;;;2.10;;
7377;SDS011;3730;50.856;12.776;2023-03-15T07:29:51;6.37;;;1.90;;
7377;SDS011;3730;50.856;12.776;2023-03-15T07:32:17;6.60;;;1.90;;
7377;SDS011;3730;50.856;12.776;2023-03-15T07:34:43;5.37;;;2.13;;
7377;SDS011;3730;50.856;12.776;2023-03-15T07:37:09;6.33;;;2.17;;
7377;SDS011;3730;50.856;12.776;2023-03-15T07:39:35;8.63;;;2.50;;
7377;SDS011;3730;50.856;12.776;2023-03-15T07:42:01;7.93;;;2.00;;
7377;SDS011;3730;50.856;12.776;2023-03-15T07:44:27;9.60;;;2.37;;
7377;SDS011;3730;50.856;12.776;2023-03-15T07:46:53;7.43;;;2.30;;
7377;SDS011;3730;50.856;12.776;2023-03-15T07:49:19;6.70;;;2.40;;
7377;SDS011;3730;50.856;12.776;2023-03-15T07:51:45;11.13;;;2.57;;
7377;SDS011;3730;50.856;12.776;2023-03-15T07:54:11;36.50;;;3.73;;
7377;SDS011;3730;50.856;12.776;2023-03-15T07:56:37;12.60;;;2.30;;
7377;SDS011;3730;50.856;12.776;2023-03-15T07:59:03;7.47;;;2.67;;
7377;SDS011;3730;50.856;12.776;2023-03-15T08:01:29;6.20;;;2.40;;
7377;SDS011;3730;50.856;12.776;2023-03-15T08:03:55;10.03;;;2.23;;
7377;SDS011;3730;50.856;12.776;2023-03-15T08:06:21;10.87;;;2.80;;
7377;SDS011;3730;50.856;12.776;2023-03-15T08:08:48;8.30;;;2.20;;
7377;SDS011;3730;50.856;12.776;2023-03-15T08:11:15;6.17;;;2.27;;
7377;SDS011;3730;50.856;12.776;2023-03-15T08:13:41;7.17;;;2.30;;
7377;SDS011;3730;50.856;12.776;2023-03-15T08:16:07;9.27;;;2.90;;
7377;SDS011;3730;50.856;12.776;2023-03-15T08:18:33;8.53;;;2.50;;
7377;SDS011;3730;50.856;12.776;2023-03-15T08:20:59;9.13;;;2.70;;
7377;SDS011;3730;50.856;12.776;2023-03-15T08:23:25;6.70;;;2.47;;
7377;SDS011;3730;50.856;12.776;2023-03-15T08:25:51;8.30;;;2.30;;
7377;SDS011;3730;50.856;12.776;2023-03-15T08:28:17;17.17;;;3.03;;
7377;SDS011;3730;50.856;12.776;2023-03-15T08:30:43;10.23;;;2.73;;
7377;SDS011;3730;50.856;12.776;2023-03-15T08:33:09;10.17;;;3.00;;
7377;SDS011;3730;50.856;12.776;2023-03-15T08:35:36;9.83;;;2.43;;
7377;SDS011;3730;50.856;12.776;2023-03-15T08:38:02;9.20;;;2.47;;
7377;SDS011;3730;50.856;12.776;2023-03-15T08:40:30;6.67;;;2.50;;
7377;SDS011;3730;50.856;12.776;2023-03-15T08:42:56;4.83;;;2.23;;
7377;SDS011;3730;50.856;12.776;2023-03-15T08:45:23;7.80;;;2.37;;
7377;SDS011;3730;50.856;12.776;2023-03-15T08:47:59;11.20;;;2.63;;
7377;SDS011;3730;50.856;12.776;2023-03-15T08:50:25;10.50;;;3.10;;
7377;SDS011;3730;50.856;12.776;2023-03-15T08:52:51;7.93;;;2.60;;
7377;SDS011;3730;50.856;12.776;2023-03-15T08:55:17;8.90;;;3.13;;
7377;SDS011;3730;50.856;12.776;2023-03-15T08:57:44;11.47;;;2.63;;
7377;SDS011;3730;50.856;12.776;2023-03-15T09:00:11;8.43;;;2.90;;
7377;SDS011;3730;50.856;12.776;2023-03-15T09:02:44;9.43;;;2.87;;
7377;SDS011;3730;50.856;12.776;2023-03-15T09:05:12;8.40;;;3.07;;
7377;SDS011;3730;50.856;12.776;2023-03-15T09:07:39;10.23;;;2.80;;
7377;SDS011;3730;50.856;12.776;2023-03-15T09:10:07;12.97;;;3.33;;
7377;SDS011;3730;50.856;12.776;2023-03-15T09:12:33;10.20;;;2.80;;
7377;SDS011;3730;50.856;12.776;2023-03-15T09:14:59;8.83;;;3.27;;
7377;SDS011;3730;50.856;12.776;2023-03-15T09:17:25;11.10;;;2.83;;
7377;SDS011;3730;50.856;12.776;2023-03-15T09:19:51;8.57;;;3.13;;
7377;SDS011;3730;50.856;12.776;2023-03-15T09:22:17;5.40;;;3.03;;
7377;SDS011;3730;50.856;12.776;2023-03-15T09:24:43;10.90;;;3.43;;
7377;SDS011;3730;50.856;12.776;2023-03-15T09:27:09;12.80;;;3.50;;
7377;SDS011;3730;50.856;12.776;2023-03-15T09:29:36;9.80;;;3.70;;
7377;SDS011;3730;50.856;12.776;2023-03-15T09:32:02;13.30;;;8.20;;
7377;SDS011;3730;50.856;12.776;2023-03-15T09:34:28;8.10;;;3.73;;
7377;SDS011;3730;50.856;12.776;2023-03-15T09:36:54;5.93;;;2.67;;
7377;SDS011;3730;50.856;12.776;2023-03-15T09:39:21;6.27;;;2.97;;
7377;SDS011;3730;50.856;12.776;2023-03-15T09:41:51;7.97;;;3.20;;
7377;SDS011;3730;50.856;12.776;2023-03-15T09:47:04;9.97;;;3.10;;
7377;SDS011;3730;50.856;12.776;2023-03-15T09:49:36;7.00;;;2.97;;
7377;SDS011;3730;50.856;12.776;2023-03-15T09:54:46;6.73;;;2.70;;
7377;SDS011;3730;50.856;12.776;2023-03-15T09:57:16;8.13;;;3.20;;
7377;SDS011;3730;50.856;12.776;2023-03-15T09:59:44;8.77;;;3.53;;
7377;SDS011;3730;50.856;12.776;2023-03-15T10:02:17;7.10;;;2.97;;
7377;SDS011;3730;50.856;12.776;2023-03-15T10:04:44;5.83;;;3.43;;
7377;SDS011;3730;50.856;12.776;2023-03-15T10:07:13;6.07;;;2.87;;
7377;SDS011;3730;50.856;12.776;2023-03-15T10:09:39;8.00;;;3.47;;
7377;SDS011;3730;50.856;12.776;2023-03-15T10:12:12;9.70;;;3.70;;
7377;SDS011;3730;50.856;12.776;2023-03-15T10:19:54;6.33;;;3.00;;
7377;SDS011;3730;50.856;12.776;2023-03-15T10:24:49;5.50;;;3.27;;
7377;SDS011;3730;50.856;12.776;2023-03-15T10:27:25;7.43;;;3.17;;
7377;SDS011;3730;50.856;12.776;2023-03-15T10:29:54;6.67;;;3.30;;
7377;SDS011;3730;50.856;12.776;2023-03-15T10:32:21;5.10;;;2.97;;
7377;SDS011;3730;50.856;12.776;2023-03-15T10:34:49;5.33;;;3.00;;
7377;SDS011;3730;50.856;12.776;2023-03-15T10:37:16;6.13;;;3.40;;
7377;SDS011;3730;50.856;12.776;2023-03-15T10:39:44;5.73;;;3.33;;
7377;SDS011;3730;50.856;12.776;2023-03-15T10:42:28;6.47;;;3.20;;
7377;SDS011;3730;50.856;12.776;2023-03-15T10:44:54;4.40;;;3.20;;
7377;SDS011;3730;50.856;12.776;2023-03-15T10:47:20;6.50;;;3.43;;
7377;SDS011;3730;50.856;12.776;2023-03-15T10:49:47;4.37;;;2.97;;
7377;SDS011;3730;50.856;12.776;2023-03-15T10:52:26;6.20;;;3.43;;
7377;SDS011;3730;50.856;12.776;2023-03-15T10:54:53;7.40;;;3.10;;
7377;SDS011;3730;50.856;12.776;2023-03-15T10:57:19;5.53;;;2.90;;
7377;SDS011;3730;50.856;12.776;2023-03-15T10:59:53;3.87;;;2.90;;
7377;SDS011;3730;50.856;12.776;2023-03-15T11:02:21;5.87;;;3.53;;
7377;SDS011;3730;50.856;12.776;2023-03-15T11:05:38;3.83;;;2.90;;
7377;SDS011;3730;50.856;12.776;2023-03-15T11:07:34;6.57;;;3.40;;
7377;SDS011;3730;50.856;12.776;2023-03-15T11:10:01;4.53;;;3.13;;
7377;SDS011;3730;50.856;12.776;2023-03-15T11:12:28;5.27;;;3.37;;
7377;SDS011;3730;50.856;12.776;2023-03-15T11:15:02;4.03;;;3.00;;
7377;SDS011;3730;50.856;12.776;2023-03-15T11:17:32;6.40;;;3.27;;
7377;SDS011;3730;50.856;12.776;2023-03-15T11:20:00;3.87;;;2.93;;
7377;SDS011;3730;50.856;12.776;2023-03-15T11:22:37;6.10;;;3.10;;
7377;SDS011;3730;50.856;12.776;2023-03-15T11:25:03;4.67;;;3.20;;
7377;SDS011;3730;50.856;12.776;2023-03-15T11:27:29;5.47;;;3.27;;
7377;SDS011;3730;50.856;12.776;2023-03-15T11:29:56;3.37;;;2.70;;
7377;SDS011;3730;50.856;12.776;2023-03-15T11:32:27;4.80;;;3.20;;
7377;SDS011;3730;50.856;12.776;2023-03-15T11:37:36;4.10;;;2.90;;
7377;SDS011;3730;50.856;12.776;2023-03-15T11:40:04;4.43;;;2.87;;
7377;SDS011;3730;50.856;12.776;2023-03-15T11:42:36;5.57;;;3.00;;
7377;SDS011;3730;50.856;12.776;2023-03-15T11:45:05;5.27;;;3.10;;
7377;SDS011;3730;50.856;12.776;2023-03-15T11:48:19;3.03;;;2.50;;
7377;SDS011;3730;50.856;12.776;2023-03-15T11:50:25;6.13;;;2.30;;
7377;SDS011;3730;50.856;12.776;2023-03-15T11:52:51;4.07;;;3.07;;
7377;SDS011;3730;50.856;12.776;2023-03-15T11:55:24;4.13;;;2.77;;
7377;SDS011;3730;50.856;12.776;2023-03-15T11:57:51;3.20;;;2.30;;
7377;SDS011;3730;50.856;12.776;2023-03-15T12:02:54;3.77;;;2.47;;
7377;SDS011;3730;50.856;12.776;2023-03-15T12:08:17;4.10;;;2.40;;
7377;SDS011;3730;50.856;12.776;2023-03-15T12:10:44;5.10;;;2.00;;
7377;SDS011;3730;50.856;12.776;2023-03-15T12:13:18;3.57;;;2.53;;
7377;SDS011;3730;50.856;12.776;2023-03-15T12:15:45;2.63;;;2.20;;
7377;SDS011;3730;50.856;12.776;2023-03-15T12:18:15;3.03;;;2.10;;
7377;SDS011;3730;50.856;12.776;2023-03-15T12:20:56;4.20;;;2.97;;
7377;SDS011;3730;50.856;12.776;2023-03-15T12:23:36;3.23;;;2.37;;
7377;SDS011;3730;50.856;12.776;2023-03-15T12:26:08;2.40;;;2.20;;
7377;SDS011;3730;50.856;12.776;2023-03-15T12:28:39;4.00;;;2.73;;
7377;SDS011;3730;50.856;12.776;2023-03-15T12:31:06;9.33;;;2.23;;
7377;SDS011;3730;50.856;12.776;2023-03-15T12:33:42;3.63;;;2.73;;
7377;SDS011;3730;50.856;12.776;2023-03-15T12:36:13;3.20;;;2.80;;
7377;SDS011;3730;50.856;12.776;2023-03-15T12:38:45;4.10;;;2.40;;
7377;SDS011;3730;50.856;12.776;2023-03-15T12:44:35;4.23;;;2.80;;
7377;SDS011;3730;50.856;12.776;2023-03-15T12:47:03;4.57;;;3.23;;
7377;SDS011;3730;50.856;12.776;2023-03-15T12:49:34;5.13;;;3.50;;
7377;SDS011;3730;50.856;12.776;2023-03-15T12:57:15;4.47;;;3.93;;
7377;SDS011;3730;50.856;12.776;2023-03-15T12:59:44;4.67;;;3.87;;
7377;SDS011;3730;50.856;12.776;2023-03-15T13:15:43;6.23;;;4.57;;
7377;SDS011;3730;50.856;12.776;2023-03-15T13:18:18;5.80;;;4.70;;
7377;SDS011;3730;50.856;12.776;2023-03-15T13:23:26;3.87;;;3.47;;
7377;SDS011;3730;50.856;12.776;2023-03-15T13:28:38;5.53;;;4.13;;
7377;SDS011;3730;50.856;12.776;2023-03-15T13:31:10;4.73;;;4.20;;
7377;SDS011;3730;50.856;12.776;2023-03-15T13:33:38;3.83;;;3.50;;
7377;SDS011;3730;50.856;12.776;2023-03-15T13:36:05;5.00;;;3.10;;
7377;SDS011;3730;50.856;12.776;2023-03-15T13:41:03;4.87;;;3.73;;
7377;SDS011;3730;50.856;12.776;2023-03-15T13:43:30;4.73;;;3.77;;
7377;SDS011;3730;50.856;12.776;2023-03-15T13:45:57;5.33;;;3.50;;
7377;SDS011;3730;50.856;12.776;2023-03-15T13:48:31;4.97;;;3.67;;
7377;SDS011;3730;50.856;12.776;2023-03-15T13:51:03;4.30;;;3.57;;
7377;SDS011;3730;50.856;12.776;2023-03-15T13:53:31;4.73;;;3.33;;
7377;SDS011;3730;50.856;12.776;2023-03-15T13:55:58;6.53;;;3.50;;
7377;SDS011;3730;50.856;12.776;2023-03-15T13:58:24;5.60;;;3.40;;
7377;SDS011;3730;50.856;12.776;2023-03-15T14:01:00;3.73;;;3.10;;
7377;SDS011;3730;50.856;12.776;2023-03-15T14:03:29;6.03;;;3.33;;
7377;SDS011;3730;50.856;12.776;2023-03-15T14:05:56;3.20;;;2.57;;
7377;SDS011;3730;50.856;12.776;2023-03-15T14:11:02;3.93;;;3.10;;
7377;SDS011;3730;50.856;12.776;2023-03-15T14:13:29;4.10;;;3.20;;
7377;SDS011;3730;50.856;12.776;2023-03-15T14:18:28;4.23;;;3.20;;
7377;SDS011;3730;50.856;12.776;2023-03-15T14:23:22;5.20;;;3.40;;
7377;SDS011;3730;50.856;12.776;2023-03-15T14:25:52;4.80;;;3.00;;
7377;SDS011;3730;50.856;12.776;2023-03-15T14:28:19;5.70;;;3.10;;
7377;SDS011;3730;50.856;12.776;2023-03-15T14:30:55;4.63;;;3.23;;
7377;SDS011;3730;50.856;12.776;2023-03-15T14:33:22;4.30;;;3.10;;
7377;SDS011;3730;50.856;12.776;2023-03-15T14:35:51;4.43;;;3.23;;
7377;SDS011;3730;50.856;12.776;2023-03-15T14:38:20;3.43;;;2.90;;
7377;SDS011;3730;50.856;12.776;2023-03-15T14:40:47;4.73;;;3.53;;
7377;SDS011;3730;50.856;12.776;2023-03-15T14:43:13;6.20;;;3.27;;
7377;SDS011;3730;50.856;12.776;2023-03-15T14:45:41;4.83;;;3.20;;
7377;SDS011;3730;50.856;12.776;2023-03-15T14:48:25;4.17;;;3.10;;
7377;SDS011;3730;50.856;12.776;2023-03-15T14:50:52;3.13;;;2.73;;
7377;SDS011;3730;50.856;12.776;2023-03-15T14:53:20;3.83;;;3.33;;
7377;SDS011;3730;50.856;12.776;2023-03-15T14:55:47;3.97;;;3.17;;
7377;SDS011;3730;50.856;12.776;2023-03-15T14:58:14;3.13;;;2.87;;
7377;SDS011;3730;50.856;12.776;2023-03-15T15:00:41;4.83;;;3.33;;
7377;SDS011;3730;50.856;12.776;2023-03-15T15:03:16;4.10;;;3.53;;
7377;SDS011;3730;50.856;12.776;2023-03-15T15:05:42;4.60;;;3.40;;
7377;SDS011;3730;50.856;12.776;2023-03-15T15:08:09;3.87;;;2.80;;
7377;SDS011;3730;50.856;12.776;2023-03-15T15:10:43;3.83;;;3.10;;
7377;SDS011;3730;50.856;12.776;2023-03-15T15:13:12;6.10;;;3.20;;
7377;SDS011;3730;50.856;12.776;2023-03-15T15:15:39;4.33;;;3.07;;
7377;SDS011;3730;50.856;12.776;2023-03-15T15:18:05;6.17;;;3.27;;
7377;SDS011;3730;50.856;12.776;2023-03-15T15:20:31;5.63;;;2.67;;
7377;SDS011;3730;50.856;12.776;2023-03-15T15:22:57;3.97;;;2.97;;
7377;SDS011;3730;50.856;12.776;2023-03-15T15:25:25;6.13;;;3.57;;
7377;SDS011;3730;50.856;12.776;2023-03-15T15:27:54;3.33;;;3.00;;
7377;SDS011;3730;50.856;12.776;2023-03-15T15:30:21;4.80;;;2.83;;
7377;SDS011;3730;50.856;12.776;2023-03-15T15:32:47;5.63;;;3.37;;
7377;SDS011;3730;50.856;12.776;2023-03-15T15:35:15;5.37;;;2.80;;
7377;SDS011;3730;50.856;12.776;2023-03-15T15:37:41;5.03;;;2.37;;
7377;SDS011;3730;50.856;12.776;2023-03-15T15:43:04;3.90;;;3.13;;
7377;SDS011;3730;50.856;12.776;2023-03-15T15:45:30;4.10;;;3.30;;
7377;SDS011;3730;50.856;12.776;2023-03-15T15:47:59;4.13;;;3.20;;
7377;SDS011;3730;50.856;12.776;2023-03-15T15:50:33;6.60;;;3.80;;
7377;SDS011;3730;50.856;12.776;2023-03-15T15:53:01;6.13;;;3.47;;
7377;SDS011;3730;50.856;12.776;2023-03-15T15:55:29;3.93;;;2.77;;
7377;SDS011;3730;50.856;12.776;2023-03-15T15:57:56;4.07;;;3.23;;
7377;SDS011;3730;50.856;12.776;2023-03-15T16:00:23;5.33;;;3.43;;
7377;SDS011;3730;50.856;12.776;2023-03-15T16:02:50;9.40;;;3.80;;
7377;SDS011;3730;50.856;12.776;2023-03-15T16:05:17;4.83;;;3.70;;
7377;SDS011;3730;50.856;12.776;2023-03-15T16:07:43;7.17;;;3.80;;
7377;SDS011;3730;50.856;12.776;2023-03-15T16:10:15;8.00;;;3.80;;